sensor_id;sensor_type;location;lat;lon;timestamp;temperature;humidity
18898;DHT22;9581;49.484;8.556;2022-08-19T00:01:19;23.00;99.90
18898;DHT22;9581;49.484;8.556;2022-08-19T00:03:46;23.00;99.90
18898;DHT22;9581;49.484;8.556;2022-08-19T00:06:14;22.90;99.90
18898;DHT22;9581;49.484;8.556;2022-08-19T00:08:41;23.10;99.90
18898;DHT22;9581;49.484;8.556;2022-08-19T00:11:10;23.10;99.90
18898;DHT22;9581;49.484;8.556;2022-08-19T00:13:38;23.10;99.90
18898;DHT22;9581;49.484;8.556;2022-08-19T00:16:05;23.20;99.90
18898;DHT22;9581;49.484;8.556;2022-08-19T00:18:33;23.20;99.90
18898;DHT22;9581;49.484;8.556;2022-08-19T00:21:00;23.30;99.90
18898;DHT22;9581;49.484;8.556;2022-08-19T00:23:27;23.30;99.90
18898;DHT22;9581;49.484;8.556;2022-08-19T00:25:55;23.30;99.90
18898;DHT22;9581;49.484;8.556;2022-08-19T00:28:23;23.30;99.90
18898;DHT22;9581;49.484;8.556;2022-08-19T00:30:50;23.20;99.90
18898;DHT22;9581;49.484;8.556;2022-08-19T00:33:18;23.20;99.90
18898;DHT22;9581;49.484;8.556;2022-08-19T00:35:45;23.10;99.90
18898;DHT22;9581;49.484;8.556;2022-08-19T00:38:12;23.10;99.90
18898;DHT22;9581;49.484;8.556;2022-08-19T00:40:39;23.20;99.90
18898;DHT22;9581;49.484;8.556;2022-08-19T00:43:08;23.20;99.90
18898;DHT22;9581;49.484;8.556;2022-08-19T00:45:36;23.20;99.90
18898;DHT22;9581;49.484;8.556;2022-08-19T00:48:07;23.10;99.90
18898;DHT22;9581;49.484;8.556;2022-08-19T00:50:34;23.20;99.90
18898;DHT22;9581;49.484;8.556;2022-08-19T00:53:02;23.10;99.90
18898;DHT22;9581;49.484;8.556;2022-08-19T00:55:31;23.20;99.90
18898;DHT22;9581;49.484;8.556;2022-08-19T00:58:01;23.20;99.90
18898;DHT22;9581;49.484;8.556;2022-08-19T01:00:29;23.20;99.90
18898;DHT22;9581;49.484;8.556;2022-08-19T01:02:58;23.10;99.90
18898;DHT22;9581;49.484;8.556;2022-08-19T01:05:26;23.10;99.90
18898;DHT22;9581;49.484;8.556;2022-08-19T01:07:56;23.10;99.90
18898;DHT22;9581;49.484;8.556;2022-08-19T01:10:25;23.10;99.90
18898;DHT22;9581;49.484;8.556;2022-08-19T01:12:54;23.00;99.90
18898;DHT22;9581;49.484;8.556;2022-08-19T01:15:23;23.00;99.90
18898;DHT22;9581;49.484;8.556;2022-08-19T01:17:53;23.00;99.90
18898;DHT22;9581;49.484;8.556;2022-08-19T01:20:23;23.00;99.90
18898;DHT22;9581;49.484;8.556;2022-08-19T01:22:53;23.00;99.90
18898;DHT22;9581;49.484;8.556;2022-08-19T01:25:22;22.90;99.90
18898;DHT22;9581;49.484;8.556;2022-08-19T01:27:51;23.00;99.90
18898;DHT22;9581;49.484;8.556;2022-08-19T01:30:22;23.00;99.90
18898;DHT22;9581;49.484;8.556;2022-08-19T01:32:49;23.00;99.90
18898;DHT22;9581;49.484;8.556;2022-08-19T01:35:16;22.90;99.90
18898;DHT22;9581;49.484;8.556;2022-08-19T01:37:49;22.90;99.90
18898;DHT22;9581;49.484;8.556;2022-08-19T01:40:20;22.90;99.90
18898;DHT22;9581;49.484;8.556;2022-08-19T01:42:48;23.00;99.90
18898;DHT22;9581;49.484;8.556;2022-08-19T01:45:15;23.00;99.90
18898;DHT22;9581;49.484;8.556;2022-08-19T01:47:42;22.90;99.90
18898;DHT22;9581;49.484;8.556;2022-08-19T01:50:10;22.90;99.90
18898;DHT22;9581;49.484;8.556;2022-08-19T01:52:40;22.90;99.90
18898;DHT22;9581;49.484;8.556;2022-08-19T01:55:11;22.80;99.90
18898;DHT22;9581;49.484;8.556;2022-08-19T01:57:41;23.00;99.90
18898;DHT22;9581;49.484;8.556;2022-08-19T02:00:12;23.00;99.90
18898;DHT22;9581;49.484;8.556;2022-08-19T02:02:40;22.90;99.90
18898;DHT22;9581;49.484;8.556;2022-08-19T02:05:08;23.00;99.90
18898;DHT22;9581;49.484;8.556;2022-08-19T02:07:35;22.90;99.90
18898;DHT22;9581;49.484;8.556;2022-08-19T02:10:03;22.90;99.90
18898;DHT22;9581;49.484;8.556;2022-08-19T02:12:31;22.80;99.90
18898;DHT22;9581;49.484;8.556;2022-08-19T02:15:00;22.90;99.90
18898;DHT22;9581;49.484;8.556;2022-08-19T02:17:28;22.80;99.90
18898;DHT22;9581;49.484;8.556;2022-08-19T02:19:55;22.60;99.90
18898;DHT22;9581;49.484;8.556;2022-08-19T02:22:22;22.60;99.90
18898;DHT22;9581;49.484;8.556;2022-08-19T02:24:51;22.70;99.90
18898;DHT22;9581;49.484;8.556;2022-08-19T02:27:18;22.70;99.90
18898;DHT22;9581;49.484;8.556;2022-08-19T02:29:46;22.60;99.90
18898;DHT22;9581;49.484;8.556;2022-08-19T02:32:14;22.50;99.90
18898;DHT22;9581;49.484;8.556;2022-08-19T02:34:41;22.40;99.90
18898;DHT22;9581;49.484;8.556;2022-08-19T02:37:08;22.40;99.90
18898;DHT22;9581;49.484;8.556;2022-08-19T02:39:56;22.20;99.90
18898;DHT22;9581;49.484;8.556;2022-08-19T02:42:22;22.00;99.90
18898;DHT22;9581;49.484;8.556;2022-08-19T02:44:49;22.20;99.90
18898;DHT22;9581;49.484;8.556;2022-08-19T02:47:18;22.30;99.90
18898;DHT22;9581;49.484;8.556;2022-08-19T02:49:45;22.30;99.90
18898;DHT22;9581;49.484;8.556;2022-08-19T02:52:15;22.20;99.90
18898;DHT22;9581;49.484;8.556;2022-08-19T02:54:42;22.20;99.90
18898;DHT22;9581;49.484;8.556;2022-08-19T02:57:10;22.10;99.90
18898;DHT22;9581;49.484;8.556;2022-08-19T02:59:36;22.10;99.90
18898;DHT22;9581;49.484;8.556;2022-08-19T03:02:03;21.90;99.90
18898;DHT22;9581;49.484;8.556;2022-08-19T03:04:31;21.80;99.90
18898;DHT22;9581;49.484;8.556;2022-08-19T03:06:58;21.80;99.90
18898;DHT22;9581;49.484;8.556;2022-08-19T03:09:25;21.80;99.90
18898;DHT22;9581;49.484;8.556;2022-08-19T03:11:52;22.00;99.90
18898;DHT22;9581;49.484;8.556;2022-08-19T03:14:19;22.20;99.90
18898;DHT22;9581;49.484;8.556;2022-08-19T03:16:52;22.30;99.90
18898;DHT22;9581;49.484;8.556;2022-08-19T03:19:19;22.20;99.90
18898;DHT22;9581;49.484;8.556;2022-08-19T03:21:49;22.10;99.90
18898;DHT22;9581;49.484;8.556;2022-08-19T03:24:17;22.10;99.90
18898;DHT22;9581;49.484;8.556;2022-08-19T03:26:46;22.10;99.90
18898;DHT22;9581;49.484;8.556;2022-08-19T03:29:14;22.20;99.90
18898;DHT22;9581;49.484;8.556;2022-08-19T03:31:42;22.00;99.90
18898;DHT22;9581;49.484;8.556;2022-08-19T03:34:10;22.00;99.90
18898;DHT22;9581;49.484;8.556;2022-08-19T03:36:37;22.00;99.90
18898;DHT22;9581;49.484;8.556;2022-08-19T03:39:06;22.20;99.90
18898;DHT22;9581;49.484;8.556;2022-08-19T03:41:37;22.30;99.90
18898;DHT22;9581;49.484;8.556;2022-08-19T03:44:05;22.20;99.90
18898;DHT22;9581;49.484;8.556;2022-08-19T03:46:33;22.20;99.90
18898;DHT22;9581;49.484;8.556;2022-08-19T03:49:02;22.20;99.90
18898;DHT22;9581;49.484;8.556;2022-08-19T03:51:35;22.20;99.90
18898;DHT22;9581;49.484;8.556;2022-08-19T03:54:07;22.20;99.90
18898;DHT22;9581;49.484;8.556;2022-08-19T03:56:35;22.10;99.90
18898;DHT22;9581;49.484;8.556;2022-08-19T03:59:03;21.90;99.90
18898;DHT22;9581;49.484;8.556;2022-08-19T04:01:30;22.10;99.90
18898;DHT22;9581;49.484;8.556;2022-08-19T04:03:59;21.90;99.90
18898;DHT22;9581;49.484;8.556;2022-08-19T04:06:27;21.70;99.90
18898;DHT22;9581;49.484;8.556;2022-08-19T04:08:56;21.60;99.90
18898;DHT22;9581;49.484;8.556;2022-08-19T04:11:26;21.40;99.90
18898;DHT22;9581;49.484;8.556;2022-08-19T04:13:55;21.40;99.90
18898;DHT22;9581;49.484;8.556;2022-08-19T04:16:25;21.40;99.90
18898;DHT22;9581;49.484;8.556;2022-08-19T04:18:54;21.40;99.90
18898;DHT22;9581;49.484;8.556;2022-08-19T04:21:24;21.30;99.90
18898;DHT22;9581;49.484;8.556;2022-08-19T04:23:51;21.20;99.90
18898;DHT22;9581;49.484;8.556;2022-08-19T04:26:20;21.10;99.90
18898;DHT22;9581;49.484;8.556;2022-08-19T04:28:48;21.10;99.90
18898;DHT22;9581;49.484;8.556;2022-08-19T04:31:18;21.30;99.90
18898;DHT22;9581;49.484;8.556;2022-08-19T04:33:46;21.40;99.90
18898;DHT22;9581;49.484;8.556;2022-08-19T04:36:16;21.50;99.90
18898;DHT22;9581;49.484;8.556;2022-08-19T04:38:43;21.50;99.90
18898;DHT22;9581;49.484;8.556;2022-08-19T04:41:10;21.50;99.90
18898;DHT22;9581;49.484;8.556;2022-08-19T04:43:55;21.50;99.90
18898;DHT22;9581;49.484;8.556;2022-08-19T04:46:22;21.50;99.90
18898;DHT22;9581;49.484;8.556;2022-08-19T04:48:49;21.20;99.90
18898;DHT22;9581;49.484;8.556;2022-08-19T04:51:16;21.30;99.90
18898;DHT22;9581;49.484;8.556;2022-08-19T04:53:43;21.20;99.90
18898;DHT22;9581;49.484;8.556;2022-08-19T04:56:13;21.20;99.90
18898;DHT22;9581;49.484;8.556;2022-08-19T04:58:41;21.40;99.90
18898;DHT22;9581;49.484;8.556;2022-08-19T05:01:12;21.50;99.90
18898;DHT22;9581;49.484;8.556;2022-08-19T05:03:39;21.50;99.90
18898;DHT22;9581;49.484;8.556;2022-08-19T05:06:07;21.60;99.90
18898;DHT22;9581;49.484;8.556;2022-08-19T05:08:37;21.60;99.90
18898;DHT22;9581;49.484;8.556;2022-08-19T05:11:14;21.50;99.90
18898;DHT22;9581;49.484;8.556;2022-08-19T05:13:41;21.40;99.90
18898;DHT22;9581;49.484;8.556;2022-08-19T05:16:10;21.70;99.90
18898;DHT22;9581;49.484;8.556;2022-08-19T05:18:38;21.80;99.90
18898;DHT22;9581;49.484;8.556;2022-08-19T05:21:24;21.90;99.90
18898;DHT22;9581;49.484;8.556;2022-08-19T05:24:09;22.20;99.90
18898;DHT22;9581;49.484;8.556;2022-08-19T05:26:36;22.20;99.90
18898;DHT22;9581;49.484;8.556;2022-08-19T05:29:03;22.30;99.90
18898;DHT22;9581;49.484;8.556;2022-08-19T05:31:32;22.40;99.90
18898;DHT22;9581;49.484;8.556;2022-08-19T05:33:58;22.40;99.90
18898;DHT22;9581;49.484;8.556;2022-08-19T05:36:26;22.40;99.90
18898;DHT22;9581;49.484;8.556;2022-08-19T05:38:53;22.50;99.90
18898;DHT22;9581;49.484;8.556;2022-08-19T05:41:21;22.50;99.90
18898;DHT22;9581;49.484;8.556;2022-08-19T05:43:55;22.60;99.90
18898;DHT22;9581;49.484;8.556;2022-08-19T05:46:22;22.50;99.90
18898;DHT22;9581;49.484;8.556;2022-08-19T05:48:51;22.50;99.90
18898;DHT22;9581;49.484;8.556;2022-08-19T05:51:18;22.70;99.90
18898;DHT22;9581;49.484;8.556;2022-08-19T05:53:44;22.80;99.90
18898;DHT22;9581;49.484;8.556;2022-08-19T05:56:13;22.80;99.90
18898;DHT22;9581;49.484;8.556;2022-08-19T05:58:42;22.80;99.90
18898;DHT22;9581;49.484;8.556;2022-08-19T06:01:13;22.80;99.90
18898;DHT22;9581;49.484;8.556;2022-08-19T06:03:41;22.90;99.90
18898;DHT22;9581;49.484;8.556;2022-08-19T06:06:11;23.00;99.90
18898;DHT22;9581;49.484;8.556;2022-08-19T06:08:39;22.90;99.90
18898;DHT22;9581;49.484;8.556;2022-08-19T06:11:16;22.80;99.90
18898;DHT22;9581;49.484;8.556;2022-08-19T06:13:44;22.90;99.90
18898;DHT22;9581;49.484;8.556;2022-08-19T06:16:16;22.90;99.90
18898;DHT22;9581;49.484;8.556;2022-08-19T06:18:48;22.90;99.90
18898;DHT22;9581;49.484;8.556;2022-08-19T06:21:19;23.00;99.90
18898;DHT22;9581;49.484;8.556;2022-08-19T06:23:46;22.90;99.90
18898;DHT22;9581;49.484;8.556;2022-08-19T06:26:14;23.00;99.90
18898;DHT22;9581;49.484;8.556;2022-08-19T06:28:41;23.10;99.90
18898;DHT22;9581;49.484;8.556;2022-08-19T06:31:10;23.20;99.90
18898;DHT22;9581;49.484;8.556;2022-08-19T06:33:39;23.20;99.90
18898;DHT22;9581;49.484;8.556;2022-08-19T06:36:07;23.10;99.90
18898;DHT22;9581;49.484;8.556;2022-08-19T06:38:35;23.20;99.90
18898;DHT22;9581;49.484;8.556;2022-08-19T06:41:03;23.20;99.90
18898;DHT22;9581;49.484;8.556;2022-08-19T06:43:29;23.20;99.90
18898;DHT22;9581;49.484;8.556;2022-08-19T06:45:56;23.30;99.90
18898;DHT22;9581;49.484;8.556;2022-08-19T06:48:24;23.40;99.90
18898;DHT22;9581;49.484;8.556;2022-08-19T06:50:51;23.40;99.90
18898;DHT22;9581;49.484;8.556;2022-08-19T06:53:18;23.30;99.90
18898;DHT22;9581;49.484;8.556;2022-08-19T06:55:46;23.40;99.90
18898;DHT22;9581;49.484;8.556;2022-08-19T06:58:13;23.30;99.90
18898;DHT22;9581;49.484;8.556;2022-08-19T07:00:40;23.40;99.90
18898;DHT22;9581;49.484;8.556;2022-08-19T07:03:07;23.50;99.90
18898;DHT22;9581;49.484;8.556;2022-08-19T07:05:38;23.40;99.90
18898;DHT22;9581;49.484;8.556;2022-08-19T07:08:05;23.50;99.90
18898;DHT22;9581;49.484;8.556;2022-08-19T07:10:33;23.60;99.90
18898;DHT22;9581;49.484;8.556;2022-08-19T07:13:01;23.60;99.90
18898;DHT22;9581;49.484;8.556;2022-08-19T07:15:29;23.70;99.90
18898;DHT22;9581;49.484;8.556;2022-08-19T07:17:56;23.70;99.90
18898;DHT22;9581;49.484;8.556;2022-08-19T07:20:25;23.90;99.90
18898;DHT22;9581;49.484;8.556;2022-08-19T07:22:55;23.90;99.90
18898;DHT22;9581;49.484;8.556;2022-08-19T07:25:22;24.00;99.90
18898;DHT22;9581;49.484;8.556;2022-08-19T07:27:49;24.10;99.90
18898;DHT22;9581;49.484;8.556;2022-08-19T07:30:17;24.20;99.90
18898;DHT22;9581;49.484;8.556;2022-08-19T07:32:44;24.20;99.90
18898;DHT22;9581;49.484;8.556;2022-08-19T07:35:11;24.30;99.90
18898;DHT22;9581;49.484;8.556;2022-08-19T07:37:38;24.40;99.90
18898;DHT22;9581;49.484;8.556;2022-08-19T07:40:10;24.50;99.90
18898;DHT22;9581;49.484;8.556;2022-08-19T07:42:37;24.40;99.90
18898;DHT22;9581;49.484;8.556;2022-08-19T07:45:05;24.60;99.90
18898;DHT22;9581;49.484;8.556;2022-08-19T07:47:34;24.50;99.90
18898;DHT22;9581;49.484;8.556;2022-08-19T07:50:00;24.50;99.90
18898;DHT22;9581;49.484;8.556;2022-08-19T07:52:30;24.50;99.90
18898;DHT22;9581;49.484;8.556;2022-08-19T07:54:56;24.40;99.90
18898;DHT22;9581;49.484;8.556;2022-08-19T07:57:25;24.40;99.90
18898;DHT22;9581;49.484;8.556;2022-08-19T07:59:52;25.00;99.90
18898;DHT22;9581;49.484;8.556;2022-08-19T08:02:18;25.10;99.90
18898;DHT22;9581;49.484;8.556;2022-08-19T08:04:47;25.60;99.90
18898;DHT22;9581;49.484;8.556;2022-08-19T08:07:31;26.10;99.90
18898;DHT22;9581;49.484;8.556;2022-08-19T08:10:15;26.60;99.90
18898;DHT22;9581;49.484;8.556;2022-08-19T08:12:42;27.30;99.90
18898;DHT22;9581;49.484;8.556;2022-08-19T08:15:11;27.80;99.90
18898;DHT22;9581;49.484;8.556;2022-08-19T08:17:42;28.20;99.90
18898;DHT22;9581;49.484;8.556;2022-08-19T08:20:11;28.50;99.90
18898;DHT22;9581;49.484;8.556;2022-08-19T08:22:43;28.40;99.90
18898;DHT22;9581;49.484;8.556;2022-08-19T08:25:27;28.30;99.90
18898;DHT22;9581;49.484;8.556;2022-08-19T08:27:55;27.50;99.90
18898;DHT22;9581;49.484;8.556;2022-08-19T08:30:27;27.30;99.90
18898;DHT22;9581;49.484;8.556;2022-08-19T08:32:54;27.40;99.90
18898;DHT22;9581;49.484;8.556;2022-08-19T08:35:23;27.70;99.90
18898;DHT22;9581;49.484;8.556;2022-08-19T08:37:52;28.00;99.90
18898;DHT22;9581;49.484;8.556;2022-08-19T08:40:23;28.10;99.90
18898;DHT22;9581;49.484;8.556;2022-08-19T08:42:57;28.20;99.90
18898;DHT22;9581;49.484;8.556;2022-08-19T08:45:26;28.20;99.90
18898;DHT22;9581;49.484;8.556;2022-08-19T08:47:57;28.40;99.90
18898;DHT22;9581;49.484;8.556;2022-08-19T08:50:32;28.60;99.90
18898;DHT22;9581;49.484;8.556;2022-08-19T08:53:02;28.60;99.90
18898;DHT22;9581;49.484;8.556;2022-08-19T08:55:30;28.50;99.90
18898;DHT22;9581;49.484;8.556;2022-08-19T08:58:01;28.50;99.90
18898;DHT22;9581;49.484;8.556;2022-08-19T09:00:31;28.70;99.90
18898;DHT22;9581;49.484;8.556;2022-08-19T09:03:00;29.00;99.90
18898;DHT22;9581;49.484;8.556;2022-08-19T09:05:36;29.40;99.90
18898;DHT22;9581;49.484;8.556;2022-08-19T09:08:08;29.10;99.90
18898;DHT22;9581;49.484;8.556;2022-08-19T09:10:39;28.80;99.90
18898;DHT22;9581;49.484;8.556;2022-08-19T09:13:13;28.90;99.90
18898;DHT22;9581;49.484;8.556;2022-08-19T09:15:46;29.40;99.90
18898;DHT22;9581;49.484;8.556;2022-08-19T09:18:14;29.60;99.90
18898;DHT22;9581;49.484;8.556;2022-08-19T09:20:43;29.60;99.90
18898;DHT22;9581;49.484;8.556;2022-08-19T09:23:09;29.50;99.90
18898;DHT22;9581;49.484;8.556;2022-08-19T09:25:37;29.70;99.90
18898;DHT22;9581;49.484;8.556;2022-08-19T09:28:06;29.90;99.90
18898;DHT22;9581;49.484;8.556;2022-08-19T09:30:39;30.10;99.90
18898;DHT22;9581;49.484;8.556;2022-08-19T09:33:07;30.00;99.80
18898;DHT22;9581;49.484;8.556;2022-08-19T09:35:34;29.80;99.00
18898;DHT22;9581;49.484;8.556;2022-08-19T09:38:03;29.20;99.40
18898;DHT22;9581;49.484;8.556;2022-08-19T09:40:30;29.20;99.90
18898;DHT22;9581;49.484;8.556;2022-08-19T09:42:57;29.60;99.80
18898;DHT22;9581;49.484;8.556;2022-08-19T09:45:28;29.90;99.40
18898;DHT22;9581;49.484;8.556;2022-08-19T09:47:56;29.60;99.50
18898;DHT22;9581;49.484;8.556;2022-08-19T09:50:23;29.80;98.90
18898;DHT22;9581;49.484;8.556;2022-08-19T09:52:50;30.30;98.50
18898;DHT22;9581;49.484;8.556;2022-08-19T09:55:20;30.60;98.10
18898;DHT22;9581;49.484;8.556;2022-08-19T09:57:47;30.70;96.90
18898;DHT22;9581;49.484;8.556;2022-08-19T10:00:14;30.20;97.30
18898;DHT22;9581;49.484;8.556;2022-08-19T10:02:41;30.40;96.70
18898;DHT22;9581;49.484;8.556;2022-08-19T10:05:08;30.50;96.50
18898;DHT22;9581;49.484;8.556;2022-08-19T10:07:52;30.90;96.00
18898;DHT22;9581;49.484;8.556;2022-08-19T10:10:21;31.20;96.60
18898;DHT22;9581;49.484;8.556;2022-08-19T10:12:48;30.90;96.00
18898;DHT22;9581;49.484;8.556;2022-08-19T10:15:15;30.50;97.00
18898;DHT22;9581;49.484;8.556;2022-08-19T10:17:46;30.40;96.60
18898;DHT22;9581;49.484;8.556;2022-08-19T10:20:13;30.10;96.00
18898;DHT22;9581;49.484;8.556;2022-08-19T10:22:40;29.50;96.40
18898;DHT22;9581;49.484;8.556;2022-08-19T10:25:08;29.20;96.60
18898;DHT22;9581;49.484;8.556;2022-08-19T10:27:36;29.20;97.10
18898;DHT22;9581;49.484;8.556;2022-08-19T10:30:04;29.90;97.00
18898;DHT22;9581;49.484;8.556;2022-08-19T10:32:31;30.50;95.60
18898;DHT22;9581;49.484;8.556;2022-08-19T10:34:59;31.10;96.00
18898;DHT22;9581;49.484;8.556;2022-08-19T10:37:26;31.00;95.50
18898;DHT22;9581;49.484;8.556;2022-08-19T10:39:52;31.60;95.40
18898;DHT22;9581;49.484;8.556;2022-08-19T10:42:19;31.90;94.80
18898;DHT22;9581;49.484;8.556;2022-08-19T10:44:48;32.10;94.60
18898;DHT22;9581;49.484;8.556;2022-08-19T10:47:15;32.10;93.30
18898;DHT22;9581;49.484;8.556;2022-08-19T10:49:42;32.20;94.30
18898;DHT22;9581;49.484;8.556;2022-08-19T10:52:26;31.60;93.70
18898;DHT22;9581;49.484;8.556;2022-08-19T10:55:04;31.30;94.50
18898;DHT22;9581;49.484;8.556;2022-08-19T10:57:49;30.90;94.60
18898;DHT22;9581;49.484;8.556;2022-08-19T11:00:17;31.20;94.70
18898;DHT22;9581;49.484;8.556;2022-08-19T11:02:44;31.90;94.20
18898;DHT22;9581;49.484;8.556;2022-08-19T11:05:12;31.70;93.60
18898;DHT22;9581;49.484;8.556;2022-08-19T11:07:40;32.60;93.60
18898;DHT22;9581;49.484;8.556;2022-08-19T11:10:10;32.50;92.90
18898;DHT22;9581;49.484;8.556;2022-08-19T11:12:39;32.60;92.90
18898;DHT22;9581;49.484;8.556;2022-08-19T11:15:08;32.80;91.80
18898;DHT22;9581;49.484;8.556;2022-08-19T11:17:38;33.00;92.00
18898;DHT22;9581;49.484;8.556;2022-08-19T11:20:09;33.00;91.00
18898;DHT22;9581;49.484;8.556;2022-08-19T11:22:38;32.60;91.60
18898;DHT22;9581;49.484;8.556;2022-08-19T11:25:06;31.70;91.70
18898;DHT22;9581;49.484;8.556;2022-08-19T11:27:33;31.90;91.90
18898;DHT22;9581;49.484;8.556;2022-08-19T11:30:00;32.60;90.90
18898;DHT22;9581;49.484;8.556;2022-08-19T11:32:28;33.00;90.90
18898;DHT22;9581;49.484;8.556;2022-08-19T11:34:57;33.00;90.50
18898;DHT22;9581;49.484;8.556;2022-08-19T11:37:23;33.20;90.20
18898;DHT22;9581;49.484;8.556;2022-08-19T11:39:50;33.50;90.00
18898;DHT22;9581;49.484;8.556;2022-08-19T11:42:17;33.90;89.50
18898;DHT22;9581;49.484;8.556;2022-08-19T11:45:02;32.80;88.80
18898;DHT22;9581;49.484;8.556;2022-08-19T11:47:29;31.70;90.80
18898;DHT22;9581;49.484;8.556;2022-08-19T11:49:58;31.20;90.90
18898;DHT22;9581;49.484;8.556;2022-08-19T11:52:25;31.50;91.00
18898;DHT22;9581;49.484;8.556;2022-08-19T11:54:52;32.30;89.10
18898;DHT22;9581;49.484;8.556;2022-08-19T11:57:19;32.80;86.40
18898;DHT22;9581;49.484;8.556;2022-08-19T11:59:49;33.20;86.30
18898;DHT22;9581;49.484;8.556;2022-08-19T12:02:16;33.20;85.60
18898;DHT22;9581;49.484;8.556;2022-08-19T12:04:44;33.00;87.00
18898;DHT22;9581;49.484;8.556;2022-08-19T12:07:12;33.20;86.20
18898;DHT22;9581;49.484;8.556;2022-08-19T12:09:39;32.50;86.90
18898;DHT22;9581;49.484;8.556;2022-08-19T12:12:06;32.70;88.10
18898;DHT22;9581;49.484;8.556;2022-08-19T12:14:34;32.20;87.90
18898;DHT22;9581;49.484;8.556;2022-08-19T12:17:01;32.40;84.60
18898;DHT22;9581;49.484;8.556;2022-08-19T12:19:30;32.40;83.50
18898;DHT22;9581;49.484;8.556;2022-08-19T12:21:59;31.90;84.60
18898;DHT22;9581;49.484;8.556;2022-08-19T12:24:30;31.60;85.20
18898;DHT22;9581;49.484;8.556;2022-08-19T12:26:57;31.90;86.30
18898;DHT22;9581;49.484;8.556;2022-08-19T12:29:27;31.60;84.40
18898;DHT22;9581;49.484;8.556;2022-08-19T12:31:55;31.20;87.00
18898;DHT22;9581;49.484;8.556;2022-08-19T12:34:26;30.80;87.30
18898;DHT22;9581;49.484;8.556;2022-08-19T12:36:55;30.40;87.40
18898;DHT22;9581;49.484;8.556;2022-08-19T12:39:22;30.30;87.90
18898;DHT22;9581;49.484;8.556;2022-08-19T12:41:50;30.40;87.40
18898;DHT22;9581;49.484;8.556;2022-08-19T12:44:18;30.70;86.50
18898;DHT22;9581;49.484;8.556;2022-08-19T12:46:45;31.00;86.60
18898;DHT22;9581;49.484;8.556;2022-08-19T12:49:13;30.90;87.10
18898;DHT22;9581;49.484;8.556;2022-08-19T12:51:40;30.50;86.20
18898;DHT22;9581;49.484;8.556;2022-08-19T12:54:08;30.40;85.40
18898;DHT22;9581;49.484;8.556;2022-08-19T12:56:36;30.30;85.00
18898;DHT22;9581;49.484;8.556;2022-08-19T12:59:04;30.30;81.80
18898;DHT22;9581;49.484;8.556;2022-08-19T13:01:33;30.90;83.30
18898;DHT22;9581;49.484;8.556;2022-08-19T13:04:00;31.10;82.10
18898;DHT22;9581;49.484;8.556;2022-08-19T13:06:27;31.40;84.00
18898;DHT22;9581;49.484;8.556;2022-08-19T13:08:54;31.10;79.50
18898;DHT22;9581;49.484;8.556;2022-08-19T13:11:22;31.30;79.70
18898;DHT22;9581;49.484;8.556;2022-08-19T13:13:51;31.50;77.20
18898;DHT22;9581;49.484;8.556;2022-08-19T13:16:21;31.70;77.30
18898;DHT22;9581;49.484;8.556;2022-08-19T13:18:49;31.50;78.10
18898;DHT22;9581;49.484;8.556;2022-08-19T13:21:18;31.80;78.40
18898;DHT22;9581;49.484;8.556;2022-08-19T13:23:46;31.90;77.50
18898;DHT22;9581;49.484;8.556;2022-08-19T13:26:13;31.80;75.30
18898;DHT22;9581;49.484;8.556;2022-08-19T13:28:41;31.60;74.60
18898;DHT22;9581;49.484;8.556;2022-08-19T13:31:29;31.80;75.30
18898;DHT22;9581;49.484;8.556;2022-08-19T13:34:15;32.10;75.50
18898;DHT22;9581;49.484;8.556;2022-08-19T13:36:42;32.00;75.10
18898;DHT22;9581;49.484;8.556;2022-08-19T13:39:09;32.20;76.60
18898;DHT22;9581;49.484;8.556;2022-08-19T13:41:37;32.20;75.80
18898;DHT22;9581;49.484;8.556;2022-08-19T13:44:04;31.90;75.90
18898;DHT22;9581;49.484;8.556;2022-08-19T13:46:33;31.90;74.50
18898;DHT22;9581;49.484;8.556;2022-08-19T13:49:00;32.20;76.30
18898;DHT22;9581;49.484;8.556;2022-08-19T13:51:26;32.20;75.60
18898;DHT22;9581;49.484;8.556;2022-08-19T13:53:53;32.10;75.10
18898;DHT22;9581;49.484;8.556;2022-08-19T13:56:21;32.20;73.50
18898;DHT22;9581;49.484;8.556;2022-08-19T13:58:47;32.30;74.00
18898;DHT22;9581;49.484;8.556;2022-08-19T14:01:19;32.50;75.40
18898;DHT22;9581;49.484;8.556;2022-08-19T14:03:47;32.50;75.30
18898;DHT22;9581;49.484;8.556;2022-08-19T14:06:14;32.50;74.50
18898;DHT22;9581;49.484;8.556;2022-08-19T14:08:42;32.60;74.30
18898;DHT22;9581;49.484;8.556;2022-08-19T14:11:09;32.90;75.10
18898;DHT22;9581;49.484;8.556;2022-08-19T14:13:37;32.90;73.30
18898;DHT22;9581;49.484;8.556;2022-08-19T14:16:07;33.20;72.00
18898;DHT22;9581;49.484;8.556;2022-08-19T14:18:34;33.30;69.50
18898;DHT22;9581;49.484;8.556;2022-08-19T14:21:02;33.30;69.30
18898;DHT22;9581;49.484;8.556;2022-08-19T14:23:30;33.60;68.70
18898;DHT22;9581;49.484;8.556;2022-08-19T14:26:03;34.40;68.90
18898;DHT22;9581;49.484;8.556;2022-08-19T14:28:30;38.00;65.60
18898;DHT22;9581;49.484;8.556;2022-08-19T14:30:57;40.10;60.80
18898;DHT22;9581;49.484;8.556;2022-08-19T14:33:24;41.40;57.70
18898;DHT22;9581;49.484;8.556;2022-08-19T14:35:51;42.50;56.20
18898;DHT22;9581;49.484;8.556;2022-08-19T14:38:20;43.20;53.90
18898;DHT22;9581;49.484;8.556;2022-08-19T14:40:46;41.80;51.80
18898;DHT22;9581;49.484;8.556;2022-08-19T14:43:14;42.20;52.60
18898;DHT22;9581;49.484;8.556;2022-08-19T14:45:43;41.50;51.40
18898;DHT22;9581;49.484;8.556;2022-08-19T14:48:10;42.40;51.90
18898;DHT22;9581;49.484;8.556;2022-08-19T14:50:38;42.30;51.50
18898;DHT22;9581;49.484;8.556;2022-08-19T14:53:07;41.30;51.40
18898;DHT22;9581;49.484;8.556;2022-08-19T14:55:36;41.20;51.40
18898;DHT22;9581;49.484;8.556;2022-08-19T14:58:02;40.90;52.70
18898;DHT22;9581;49.484;8.556;2022-08-19T15:00:29;40.10;53.90
18898;DHT22;9581;49.484;8.556;2022-08-19T15:02:56;40.10;54.20
18898;DHT22;9581;49.484;8.556;2022-08-19T15:05:24;41.10;52.90
18898;DHT22;9581;49.484;8.556;2022-08-19T15:07:52;40.90;53.20
18898;DHT22;9581;49.484;8.556;2022-08-19T15:10:22;40.60;53.30
18898;DHT22;9581;49.484;8.556;2022-08-19T15:12:51;39.50;54.00
18898;DHT22;9581;49.484;8.556;2022-08-19T15:15:19;37.70;54.10
18898;DHT22;9581;49.484;8.556;2022-08-19T15:17:48;36.20;55.30
18898;DHT22;9581;49.484;8.556;2022-08-19T15:20:18;37.90;55.70
18898;DHT22;9581;49.484;8.556;2022-08-19T15:22:46;39.00;55.10
18898;DHT22;9581;49.484;8.556;2022-08-19T15:25:16;39.60;54.40
18898;DHT22;9581;49.484;8.556;2022-08-19T15:27:43;39.60;54.90
18898;DHT22;9581;49.484;8.556;2022-08-19T15:30:18;39.50;55.00
18898;DHT22;9581;49.484;8.556;2022-08-19T15:32:46;38.40;54.20
18898;DHT22;9581;49.484;8.556;2022-08-19T15:35:13;36.40;56.90
18898;DHT22;9581;49.484;8.556;2022-08-19T15:37:40;35.10;58.10
18898;DHT22;9581;49.484;8.556;2022-08-19T15:40:08;34.60;57.40
18898;DHT22;9581;49.484;8.556;2022-08-19T15:42:35;34.30;58.40
18898;DHT22;9581;49.484;8.556;2022-08-19T15:45:03;33.80;58.50
18898;DHT22;9581;49.484;8.556;2022-08-19T15:47:31;34.00;58.50
18898;DHT22;9581;49.484;8.556;2022-08-19T15:49:58;34.70;58.30
18898;DHT22;9581;49.484;8.556;2022-08-19T15:52:25;34.00;57.00
18898;DHT22;9581;49.484;8.556;2022-08-19T15:54:52;33.10;59.10